world map with EUX marked

EUX - Airport

This information may not be accurate or current and is not valid for navigation or flight planning. No warranty of fitness for any purpose is made or implied.

flag of Sint Eustatiusflag of Bonaire/Sint Eustatius/Saba

Donate via PayPal

Additional information is available on the NEW Great Circle Mapper

Location
City:  Oranjestad, Sint Eustatius, Bonaire/Sint Eustatius/Saba
Near (Alt.):Statia
Name:F.D. Roosevelt Airport
ICAO / IATA:TNCE / EUX

Details
Type:Airport (Aerodrome, Airfield)
Latitude:17°29'47"N (17.496492)
Longitude:62°58'46"W (-62.979438)
Datum:WGS 1984
Elevation:129 ft (39 m)
Runways:1
Longest:4265 × 100 ft (1300 × 30.5 m)

Time
Timezone:UTC+30:08 (DST+32:08)
Local Time:

Weather
METAR:TNCE  041355Z AUTO 08012KT 050V110 //// // ///////// 27/20 Q1017 RE//

Related Locations
Nearby:
Farthest:WHM: 12211 mi / 19652 km
Wickham, WA, AU

Find:

   beyond  
but within

Other Information
Maps:
Sources:

  


 


Great Circle Mapper   Great Circle Mapper
Great Circle Mapper FAQ   Great Circle Mapper FAQ
  Karl's Home Page
KLSē   KLSē Home
   GC on Facebook
Airlines of the World   Airlines of the World
Donate via PayPal


Copyright © 2004-2020, Karl L. Swartz. All rights reserved.
All trademarks mentioned herein belong to their respective owners.

Please see credits for attribution and copyright information.

Karl Swartz <karl@kls2.com>
  Powered by FreeBSD
Valid HTML 4.01!
Labeled with ICRA
hCard Microformat
Geo Microformat